createdAt,value
2024-01-19T00:00:54.065Z,16.02
2024-01-19T00:03:20.773Z,17.48
2024-01-19T00:05:47.535Z,20.05
2024-01-19T00:08:14.380Z,19.35
2024-01-19T00:10:41.111Z,17.40
2024-01-19T00:13:07.839Z,18.95
2024-01-19T00:15:39.945Z,18.58
2024-01-19T00:18:09.594Z,17.23
2024-01-19T00:20:36.519Z,23.25
2024-01-19T00:23:03.252Z,19.40
2024-01-19T00:25:30.049Z,17.50
2024-01-19T00:27:56.836Z,16.10
2024-01-19T00:30:23.561Z,15.32
2024-01-19T00:32:50.552Z,15.93
2024-01-19T00:35:20.699Z,18.27
2024-01-19T00:37:48.685Z,17.85
2024-01-19T00:40:16.307Z,18.00
2024-01-19T00:42:44.135Z,14.45
2024-01-19T00:45:11.575Z,15.73
2024-01-19T00:47:38.490Z,16.92
2024-01-19T00:50:07.023Z,16.90
2024-01-19T00:52:34.017Z,15.80
2024-01-19T00:55:00.906Z,18.52
2024-01-19T00:57:27.644Z,16.63
2024-01-19T00:59:56.711Z,14.80
2024-01-19T01:02:23.903Z,19.25
2024-01-19T01:04:50.758Z,18.20
2024-01-19T01:07:17.529Z,16.08
2024-01-19T01:09:44.398Z,16.77
2024-01-19T01:12:11.123Z,14.07
2024-01-19T01:14:37.929Z,13.68
2024-01-19T01:17:04.868Z,13.85
2024-01-19T01:19:33.439Z,13.63
2024-01-19T01:22:00.969Z,15.90
2024-01-19T01:24:27.725Z,13.95
2024-01-19T01:26:54.620Z,14.93
2024-01-19T01:29:21.827Z,14.63
2024-01-19T01:31:50.451Z,14.88
2024-01-19T01:34:17.192Z,16.23
2024-01-19T01:36:43.965Z,12.68
2024-01-19T01:39:15.346Z,12.90
2024-01-19T01:41:45.564Z,14.68
2024-01-19T01:44:12.282Z,14.77
2024-01-19T01:46:39.152Z,18.33
2024-01-19T01:49:07.143Z,16.92
2024-01-19T01:51:34.467Z,13.32
2024-01-19T01:54:01.907Z,11.95
2024-01-19T01:56:28.849Z,12.07
2024-01-19T01:58:55.589Z,12.85
2024-01-19T02:01:22.623Z,11.15
2024-01-19T02:03:50.044Z,12.00
2024-01-19T02:06:17.026Z,12.80
2024-01-19T02:08:43.918Z,14.15
2024-01-19T02:11:11.048Z,13.05
2024-01-19T02:13:38.078Z,14.65
2024-01-19T02:16:04.934Z,9.82
2024-01-19T02:18:31.924Z,13.50
2024-01-19T02:20:58.832Z,12.77
2024-01-19T02:23:28.133Z,12.38
2024-01-19T02:25:55.163Z,13.85
2024-01-19T02:28:21.975Z,13.55
2024-01-19T02:30:48.675Z,13.88
2024-01-19T02:33:15.864Z,11.40
2024-01-19T02:35:42.687Z,13.02
2024-01-19T02:38:09.449Z,12.85
2024-01-19T02:40:36.138Z,10.00
2024-01-19T02:43:02.875Z,11.48
2024-01-19T02:45:29.589Z,10.75
2024-01-19T02:47:56.416Z,13.68
2024-01-19T02:50:23.185Z,12.98
2024-01-19T02:52:49.913Z,12.90
2024-01-19T02:55:17.340Z,9.80
2024-01-19T02:57:44.102Z,9.85
2024-01-19T03:00:11.658Z,10.48
2024-01-19T03:02:38.486Z,17.17
2024-01-19T03:05:05.632Z,12.70
2024-01-19T03:07:32.402Z,13.98
2024-01-19T03:09:59.204Z,11.45
2024-01-19T03:12:25.951Z,12.68
2024-01-19T03:14:53.313Z,9.85
2024-01-19T03:17:20.583Z,8.80
2024-01-19T03:19:47.410Z,9.88
2024-01-19T03:22:14.168Z,10.75
2024-01-19T03:24:41.232Z,10.15
2024-01-19T03:27:07.919Z,13.77
2024-01-19T03:29:35.299Z,9.25
2024-01-19T03:32:02.066Z,10.70
2024-01-19T03:34:29.772Z,9.82
2024-01-19T03:36:56.525Z,9.43
2024-01-19T03:39:24.501Z,10.30
2024-01-19T03:41:51.264Z,14.15
2024-01-19T03:44:18.079Z,11.55
2024-01-19T03:46:44.825Z,11.05
2024-01-19T03:49:11.536Z,9.85
2024-01-19T03:51:38.260Z,9.25
2024-01-19T03:54:04.969Z,7.57
2024-01-19T03:56:31.700Z,12.85
2024-01-19T03:58:58.421Z,9.18
2024-01-19T04:01:25.122Z,11.07
2024-01-19T04:03:52.004Z,10.80
2024-01-19T04:06:18.877Z,10.93
2024-01-19T04:08:45.639Z,12.60
2024-01-19T04:11:12.364Z,10.70
2024-01-19T04:13:39.291Z,9.82
2024-01-19T04:16:06.040Z,12.18
2024-01-19T04:18:32.858Z,8.05
2024-01-19T04:20:59.765Z,9.40
2024-01-19T04:23:26.520Z,7.38
2024-01-19T04:25:53.266Z,8.68
2024-01-19T04:28:19.983Z,7.50
2024-01-19T04:30:46.689Z,9.32
2024-01-19T04:33:13.491Z,12.57
2024-01-19T04:35:40.272Z,7.15
2024-01-19T04:38:07.041Z,6.70
2024-01-19T04:40:33.768Z,10.35
2024-01-19T04:43:00.608Z,7.22
2024-01-19T04:45:27.343Z,9.23
2024-01-19T04:47:54.158Z,7.85
2024-01-19T04:50:21.033Z,7.35
2024-01-19T04:52:47.746Z,8.40
2024-01-19T04:55:14.461Z,8.27
2024-01-19T04:57:41.213Z,7.13
2024-01-19T05:00:09.671Z,5.28
2024-01-19T05:02:36.397Z,10.85
2024-01-19T05:05:03.172Z,8.05
2024-01-19T05:07:29.954Z,9.23
2024-01-19T05:09:57.341Z,8.82
2024-01-19T05:12:24.092Z,5.35
2024-01-19T05:14:50.900Z,7.28
2024-01-19T05:17:19.009Z,6.82
2024-01-19T05:19:45.844Z,4.78
2024-01-19T05:22:12.640Z,7.90
2024-01-19T05:24:42.779Z,8.88
2024-01-19T05:27:10.183Z,5.10
2024-01-19T05:29:37.102Z,5.00
2024-01-19T05:32:04.258Z,6.00
2024-01-19T05:34:31.045Z,4.72
2024-01-19T05:36:58.136Z,5.72
2024-01-19T05:39:24.844Z,4.47
2024-01-19T05:41:51.641Z,11.77
2024-01-19T05:44:18.367Z,7.65
2024-01-19T05:46:45.120Z,6.55
2024-01-19T05:49:11.936Z,5.45
2024-01-19T05:51:38.845Z,10.70
2024-01-19T05:54:05.604Z,10.70
2024-01-19T05:56:32.337Z,6.07
2024-01-19T05:58:59.097Z,7.45
2024-01-19T06:01:25.891Z,14.02
2024-01-19T06:03:52.628Z,8.43
2024-01-19T06:06:19.536Z,7.57
2024-01-19T06:08:46.372Z,8.27
2024-01-19T06:11:13.105Z,9.05
2024-01-19T06:13:41.238Z,6.70
2024-01-19T06:16:08.058Z,8.32
2024-01-19T06:18:35.564Z,11.48
2024-01-19T06:21:02.474Z,8.00
2024-01-19T06:23:29.389Z,4.78
2024-01-19T06:25:56.130Z,5.32
2024-01-19T06:28:22.880Z,9.50
2024-01-19T06:30:49.711Z,4.97
2024-01-19T06:33:16.558Z,5.35
2024-01-19T06:35:43.804Z,6.57
2024-01-19T06:38:10.582Z,6.30
2024-01-19T06:40:37.500Z,4.28
2024-01-19T06:43:04.328Z,9.70
2024-01-19T06:45:32.134Z,5.28
2024-01-19T06:47:58.971Z,8.13
2024-01-19T06:50:25.870Z,12.25
2024-01-19T06:52:53.944Z,7.57
2024-01-19T06:55:20.994Z,8.93
2024-01-19T06:57:48.335Z,5.80
2024-01-19T07:00:18.792Z,7.10
2024-01-19T07:02:46.108Z,9.27
2024-01-19T07:05:12.933Z,8.73
2024-01-19T07:07:41.103Z,9.65
2024-01-19T07:10:07.980Z,9.55
2024-01-19T07:12:34.733Z,6.68
2024-01-19T07:15:01.644Z,8.82
2024-01-19T07:17:28.533Z,13.88
2024-01-19T07:19:55.410Z,5.35
2024-01-19T07:22:22.223Z,7.55
2024-01-19T07:24:48.968Z,8.60
2024-01-19T07:27:16.343Z,7.07
2024-01-19T07:29:44.764Z,9.40
2024-01-19T07:32:11.752Z,8.10
2024-01-19T07:34:38.596Z,6.80
2024-01-19T07:37:06.417Z,6.45
2024-01-19T07:39:34.208Z,8.25
2024-01-19T07:42:01.748Z,7.53
2024-01-19T07:44:28.505Z,7.20
2024-01-19T07:46:55.245Z,8.90
2024-01-19T07:49:24.867Z,7.65
2024-01-19T07:51:52.046Z,8.50
2024-01-19T07:54:20.043Z,9.88
2024-01-19T07:56:46.893Z,8.18
2024-01-19T07:59:13.700Z,7.43
2024-01-19T08:01:40.918Z,10.00
2024-01-19T08:04:07.926Z,8.00
2024-01-19T08:06:34.880Z,6.95
2024-01-19T08:09:01.798Z,7.78
2024-01-19T08:11:28.757Z,5.15
2024-01-19T08:13:55.694Z,9.30
2024-01-19T08:16:22.468Z,10.10
2024-01-19T08:18:49.702Z,11.82
2024-01-19T08:21:16.928Z,9.05
2024-01-19T08:23:44.219Z,11.85
2024-01-19T08:26:10.970Z,7.63
2024-01-19T08:28:37.952Z,7.75
2024-01-19T08:31:05.406Z,7.85
2024-01-19T08:33:32.219Z,10.88
2024-01-19T08:35:59.008Z,10.85
2024-01-19T08:38:26.481Z,7.97
2024-01-19T08:40:53.302Z,9.02
2024-01-19T08:43:20.017Z,12.52
2024-01-19T08:45:47.098Z,11.48
2024-01-19T08:48:14.123Z,10.07
2024-01-19T08:50:42.266Z,9.48
2024-01-19T08:53:09.029Z,11.30
2024-01-19T08:55:36.381Z,10.07
2024-01-19T08:58:03.102Z,7.18
2024-01-19T09:00:29.931Z,9.05
2024-01-19T09:03:00.828Z,10.77
2024-01-19T09:05:31.829Z,10.88
2024-01-19T09:07:58.998Z,9.55
2024-01-19T09:10:25.967Z,11.20
2024-01-19T09:12:52.812Z,12.60
2024-01-19T09:15:19.612Z,12.52
2024-01-19T09:17:48.685Z,10.80
2024-01-19T09:20:15.715Z,14.35
2024-01-19T09:22:44.248Z,9.88
2024-01-19T09:25:12.969Z,11.07
2024-01-19T09:27:40.016Z,8.50
2024-01-19T09:30:08.168Z,10.38
2024-01-19T09:32:35.088Z,8.80
2024-01-19T09:35:01.921Z,11.18
2024-01-19T09:37:29.226Z,9.85
2024-01-19T09:39:56.909Z,10.52
2024-01-19T09:42:29.401Z,14.45
2024-01-19T09:45:02.245Z,11.55
2024-01-19T09:47:38.438Z,10.18
2024-01-19T09:50:06.338Z,8.35
2024-01-19T09:52:53.364Z,8.68
2024-01-19T09:55:21.009Z,10.35
2024-01-19T09:57:48.752Z,8.98
2024-01-19T10:00:16.696Z,10.35
2024-01-19T10:02:47.804Z,11.77
2024-01-19T10:05:16.766Z,10.77
2024-01-19T10:07:45.267Z,10.20
2024-01-19T10:10:13.250Z,12.77
2024-01-19T10:12:40.363Z,10.90
2024-01-19T10:15:10.261Z,10.15
2024-01-19T10:17:37.473Z,9.70
2024-01-19T10:20:04.737Z,10.57
2024-01-19T10:22:31.650Z,11.00
2024-01-19T10:25:05.162Z,10.13
2024-01-19T10:27:42.786Z,11.32
2024-01-19T10:30:14.181Z,8.00
2024-01-19T10:32:42.347Z,13.07
2024-01-19T10:35:17.289Z,12.73
2024-01-19T10:37:44.345Z,10.13
2024-01-19T10:40:24.514Z,11.35
2024-01-19T10:42:55.377Z,10.18
2024-01-19T10:45:27.299Z,10.48
2024-01-19T10:47:55.716Z,11.40
2024-01-19T10:50:25.799Z,8.82
2024-01-19T10:52:53.031Z,7.93
2024-01-19T10:55:23.670Z,8.80
2024-01-19T10:57:57.442Z,11.10
2024-01-19T11:00:31.207Z,9.70
2024-01-19T11:02:59.403Z,12.15
2024-01-19T11:05:26.618Z,10.32
2024-01-19T11:07:55.344Z,10.00
2024-01-19T11:10:23.126Z,9.32
2024-01-19T11:12:58.211Z,10.43
2024-01-19T11:15:33.337Z,10.82
2024-01-19T11:18:02.025Z,9.15
2024-01-19T11:20:30.623Z,8.77
2024-01-19T11:22:58.107Z,12.13
2024-01-19T11:25:53.042Z,8.82
2024-01-19T11:28:46.223Z,8.98
2024-01-19T11:31:15.475Z,11.50
2024-01-19T11:33:43.220Z,10.15
2024-01-19T11:36:10.365Z,12.10
2024-01-19T11:38:40.054Z,10.43
2024-01-19T11:41:06.863Z,14.40
2024-01-19T11:43:40.886Z,8.13
2024-01-19T11:46:10.526Z,10.18
2024-01-19T11:48:43.245Z,11.65
2024-01-19T11:51:30.631Z,12.80
2024-01-19T11:54:00.271Z,10.88
2024-01-19T11:56:27.196Z,13.80
2024-01-19T11:58:57.140Z,8.15
2024-01-19T12:01:24.213Z,9.27
2024-01-19T12:03:55.654Z,7.88
2024-01-19T12:06:24.101Z,8.35
2024-01-19T12:09:08.374Z,10.27
2024-01-19T12:11:35.888Z,9.15
2024-01-19T12:14:06.849Z,12.23
2024-01-19T12:16:38.333Z,10.25
2024-01-19T12:19:05.463Z,9.65
2024-01-19T12:21:32.451Z,13.07
2024-01-19T12:23:59.522Z,11.93
2024-01-19T12:26:26.632Z,10.32
2024-01-19T12:28:54.309Z,10.38
2024-01-19T12:31:22.712Z,12.00
2024-01-19T12:33:49.436Z,8.13
2024-01-19T12:36:19.184Z,11.48
2024-01-19T12:38:45.873Z,12.07
2024-01-19T12:41:19.646Z,9.40
2024-01-19T12:43:46.501Z,11.23
2024-01-19T12:46:14.605Z,13.90
2024-01-19T12:48:41.435Z,9.77
2024-01-19T12:51:08.861Z,7.75
2024-01-19T12:53:36.419Z,10.63
2024-01-19T12:56:20.402Z,10.15
2024-01-19T12:58:47.133Z,11.50
2024-01-19T13:01:14.694Z,11.63
2024-01-19T13:03:41.465Z,10.20
2024-01-19T13:06:09.332Z,10.30
2024-01-19T13:08:36.851Z,11.77
2024-01-19T13:11:08.250Z,9.05
2024-01-19T13:13:36.237Z,7.75
2024-01-19T13:16:14.133Z,12.23
2024-01-19T13:18:41.886Z,12.13
2024-01-19T13:21:13.497Z,9.95
2024-01-19T13:23:43.059Z,10.32
2024-01-19T13:26:19.069Z,9.68
2024-01-19T13:28:46.876Z,6.80
2024-01-19T13:31:15.618Z,9.77
2024-01-19T13:33:47.093Z,9.50
2024-01-19T13:36:15.217Z,13.50
2024-01-19T13:38:42.431Z,10.13
2024-01-19T13:41:11.497Z,11.82
2024-01-19T13:43:41.304Z,10.55
2024-01-19T13:46:08.140Z,11.32
2024-01-19T13:48:34.955Z,11.50
2024-01-19T13:51:01.773Z,12.45
2024-01-19T13:53:28.589Z,12.93
2024-01-19T13:55:56.035Z,9.25
2024-01-19T13:58:23.431Z,11.93
2024-01-19T14:00:50.174Z,10.95
2024-01-19T14:03:19.393Z,9.60
2024-01-19T14:05:48.529Z,11.65
2024-01-19T14:08:16.860Z,9.80
2024-01-19T14:10:50.213Z,10.48
2024-01-19T14:13:18.331Z,10.95
2024-01-19T14:15:52.165Z,11.45
2024-01-19T14:18:20.053Z,11.05
2024-01-19T14:20:47.208Z,10.18
2024-01-19T14:23:14.836Z,11.30
2024-01-19T14:25:41.997Z,8.63
2024-01-19T14:28:10.858Z,10.18
2024-01-19T14:30:37.744Z,13.25
2024-01-19T14:33:04.792Z,17.85
2024-01-19T14:35:31.627Z,11.43
2024-01-19T14:37:58.599Z,12.70
2024-01-19T14:40:26.906Z,12.23
2024-01-19T14:42:59.486Z,13.68
2024-01-19T14:45:27.547Z,12.02
2024-01-19T14:47:54.655Z,9.88
2024-01-19T14:50:24.195Z,12.30
2024-01-19T14:52:53.284Z,15.55
2024-01-19T14:55:20.238Z,12.63
2024-01-19T14:57:46.956Z,10.45
2024-01-19T15:00:14.104Z,14.27
2024-01-19T15:02:41.809Z,12.20
2024-01-19T15:05:09.140Z,10.40
2024-01-19T15:07:36.373Z,13.73
2024-01-19T15:10:05.624Z,13.82
2024-01-19T15:12:34.282Z,17.35
2024-01-19T15:15:01.001Z,11.25
2024-01-19T15:17:28.973Z,15.35
2024-01-19T15:19:57.729Z,13.52
2024-01-19T15:22:25.941Z,14.95
2024-01-19T15:24:52.670Z,10.05
2024-01-19T15:27:19.381Z,11.23
2024-01-19T15:29:46.130Z,13.07
2024-01-19T15:32:13.503Z,13.38
2024-01-19T15:34:42.270Z,15.43
2024-01-19T15:37:12.703Z,14.68
2024-01-19T15:39:43.210Z,11.38
2024-01-19T15:42:10.474Z,14.95
2024-01-19T15:44:37.314Z,16.38
2024-01-19T15:47:04.661Z,20.58
2024-01-19T15:49:37.813Z,15.80
2024-01-19T15:52:06.014Z,16.35
2024-01-19T15:54:33.056Z,16.95
2024-01-19T15:56:59.813Z,19.60
2024-01-19T15:59:26.501Z,19.80
2024-01-19T16:01:53.224Z,16.98
2024-01-19T16:04:20.212Z,18.48
2024-01-19T16:06:46.956Z,22.92
2024-01-19T16:09:13.709Z,25.77
2024-01-19T16:11:40.489Z,20.40
2024-01-19T16:14:07.461Z,20.05
2024-01-19T16:16:36.148Z,20.52
2024-01-19T16:19:03.050Z,18.80
2024-01-19T16:21:29.838Z,21.75
2024-01-19T16:23:56.865Z,20.33
2024-01-19T16:26:25.128Z,18.63
2024-01-19T16:28:53.561Z,21.15
2024-01-19T16:31:20.819Z,20.52
2024-01-19T16:33:47.989Z,22.45
2024-01-19T16:36:15.368Z,19.40
2024-01-19T16:38:43.901Z,24.20
2024-01-19T16:41:10.887Z,23.05
2024-01-19T16:43:39.199Z,19.08
2024-01-19T16:46:06.196Z,23.95
2024-01-19T16:51:04.657Z,21.05
2024-01-19T16:53:31.879Z,20.65
2024-01-19T16:55:59.799Z,22.55
2024-01-19T16:58:27.289Z,20.20
2024-01-19T17:00:54.150Z,20.20
2024-01-19T17:03:22.084Z,19.20
2024-01-19T17:05:49.095Z,24.58
2024-01-19T17:08:16.591Z,22.35
2024-01-19T17:10:43.502Z,22.73
2024-01-19T17:13:10.241Z,23.95
2024-01-19T17:15:37.042Z,19.35
2024-01-19T17:18:05.295Z,22.70
2024-01-19T17:20:33.528Z,21.15
2024-01-19T17:23:00.569Z,20.60
2024-01-19T17:25:28.227Z,18.42
2024-01-19T17:27:55.635Z,18.40
2024-01-19T17:30:25.396Z,22.83
2024-01-19T17:32:54.139Z,24.30
2024-01-19T17:35:23.782Z,22.70
2024-01-19T17:37:51.046Z,18.83
2024-01-19T17:40:18.887Z,21.40
2024-01-19T17:42:45.793Z,17.48
2024-01-19T17:45:21.287Z,20.25
2024-01-19T17:47:52.881Z,23.75
2024-01-19T17:50:21.299Z,19.23
2024-01-19T17:52:49.727Z,19.23
2024-01-19T17:55:16.712Z,20.80
2024-01-19T17:57:45.537Z,19.67
2024-01-19T18:00:13.294Z,20.00
2024-01-19T18:02:40.072Z,19.25
2024-01-19T18:05:07.281Z,20.55
2024-01-19T18:07:34.971Z,18.42
2024-01-19T18:10:01.968Z,22.90
2024-01-19T18:12:29.847Z,20.23
2024-01-19T18:14:57.464Z,14.70
2024-01-19T18:17:24.376Z,20.08
2024-01-19T18:19:51.430Z,21.92
2024-01-19T18:22:20.678Z,16.42
2024-01-19T18:24:48.323Z,13.40
2024-01-19T18:27:15.642Z,17.35
2024-01-19T18:29:42.858Z,19.02
2024-01-19T18:32:11.750Z,20.10
2024-01-19T18:34:38.733Z,21.88
2024-01-19T18:37:06.170Z,20.90
2024-01-19T18:39:34.215Z,18.88
2024-01-19T18:42:00.953Z,14.90
2024-01-19T18:44:29.408Z,20.17
2024-01-19T18:46:56.203Z,17.83
2024-01-19T18:49:23.148Z,19.42
2024-01-19T18:51:50.114Z,18.85
2024-01-19T18:54:17.122Z,16.08
2024-01-19T18:56:44.852Z,17.88
2024-01-19T18:59:14.135Z,15.73
2024-01-19T19:01:41.283Z,17.92
2024-01-19T19:04:08.516Z,16.77
2024-01-19T19:06:36.205Z,20.52
2024-01-19T19:09:03.150Z,19.23
2024-01-19T19:11:30.140Z,14.77
2024-01-19T19:13:57.679Z,15.30
2024-01-19T19:16:36.512Z,19.08
2024-01-19T19:19:11.877Z,17.88
2024-01-19T19:21:38.671Z,17.25
2024-01-19T19:24:05.634Z,16.83
2024-01-19T19:26:32.917Z,16.83
2024-01-19T19:28:59.682Z,20.17
2024-01-19T19:31:27.426Z,14.77
2024-01-19T19:33:54.253Z,15.70
2024-01-19T19:36:21.009Z,17.27
2024-01-19T19:38:47.739Z,13.43
2024-01-19T19:41:14.736Z,17.48
2024-01-19T19:43:41.835Z,15.23
2024-01-19T19:46:10.975Z,20.75
2024-01-19T19:48:37.786Z,15.60
2024-01-19T19:51:04.722Z,21.20
2024-01-19T19:53:31.882Z,16.48
2024-01-19T19:55:58.868Z,19.60
2024-01-19T19:58:27.578Z,16.77
2024-01-19T20:00:56.827Z,18.70
2024-01-19T20:03:23.585Z,17.95
2024-01-19T20:05:50.339Z,18.05
2024-01-19T20:08:17.224Z,17.02
2024-01-19T20:10:46.006Z,16.27
2024-01-19T20:13:12.978Z,18.50
2024-01-19T20:15:39.907Z,17.90
2024-01-19T20:18:07.082Z,12.75
2024-01-19T20:20:34.076Z,18.40
2024-01-19T20:23:01.162Z,16.60
2024-01-19T20:25:28.143Z,15.18
2024-01-19T20:27:54.968Z,14.63
2024-01-19T20:30:23.774Z,15.15
2024-01-19T20:32:52.597Z,15.57
2024-01-19T20:35:20.231Z,19.00
2024-01-19T20:37:48.004Z,17.67
2024-01-19T20:40:14.830Z,15.13
2024-01-19T20:42:41.563Z,16.60
2024-01-19T20:45:09.902Z,15.25
2024-01-19T20:47:36.675Z,15.52
2024-01-19T20:50:04.302Z,16.60
2024-01-19T20:52:31.086Z,12.85
2024-01-19T20:54:58.292Z,13.60
2024-01-19T20:57:25.025Z,25.08
2024-01-19T20:59:51.807Z,16.23
2024-01-19T21:02:18.705Z,16.60
2024-01-19T21:04:45.693Z,21.80
2024-01-19T21:07:12.707Z,18.35
2024-01-19T21:09:44.198Z,14.65
2024-01-19T21:12:12.692Z,15.60
2024-01-19T21:14:40.296Z,20.40
2024-01-19T21:17:07.119Z,16.58
2024-01-19T21:19:34.099Z,13.40
2024-01-19T21:22:04.305Z,14.95
2024-01-19T21:24:33.635Z,11.95
2024-01-19T21:27:00.375Z,16.85
2024-01-19T21:29:27.097Z,16.83
2024-01-19T21:31:53.861Z,11.65
2024-01-19T21:34:20.698Z,14.07
2024-01-19T21:36:47.464Z,12.52
2024-01-19T21:39:14.461Z,11.10
2024-01-19T21:41:48.561Z,14.43
2024-01-19T21:44:16.383Z,14.15
2024-01-19T21:46:43.971Z,14.55
2024-01-19T21:49:10.989Z,10.52
2024-01-19T21:51:37.871Z,15.27
2024-01-19T21:54:05.109Z,15.50
2024-01-19T21:56:32.036Z,14.30
2024-01-19T21:58:59.000Z,13.98
2024-01-19T22:01:25.874Z,18.08
2024-01-19T22:03:52.794Z,17.88
2024-01-19T22:06:19.763Z,16.92
2024-01-19T22:08:46.732Z,14.23
2024-01-19T22:11:13.675Z,12.63
2024-01-19T22:13:40.555Z,11.60
2024-01-19T22:16:08.073Z,13.95
2024-01-19T22:18:43.741Z,11.05
2024-01-19T22:21:10.453Z,12.95
2024-01-19T22:23:39.925Z,15.23
2024-01-19T22:26:09.775Z,11.63
2024-01-19T22:28:36.659Z,12.32
2024-01-19T22:31:05.110Z,13.00
2024-01-19T22:33:34.368Z,14.68
2024-01-19T22:36:07.721Z,11.50
2024-01-19T22:38:42.092Z,14.57
2024-01-19T22:41:10.299Z,13.73
2024-01-19T22:43:38.161Z,11.98
2024-01-19T22:46:05.107Z,10.93
2024-01-19T22:48:32.111Z,12.88
2024-01-19T22:50:59.269Z,14.48
2024-01-19T22:53:26.502Z,10.00
2024-01-19T22:55:53.403Z,12.85
2024-01-19T22:58:20.755Z,17.15
2024-01-19T23:00:47.904Z,12.50
2024-01-19T23:03:14.708Z,11.07
2024-01-19T23:05:42.389Z,13.80
2024-01-19T23:08:09.194Z,13.68
2024-01-19T23:10:35.995Z,12.73
2024-01-19T23:13:02.751Z,14.77
2024-01-19T23:15:29.558Z,11.10
2024-01-19T23:17:56.769Z,10.40
2024-01-19T23:20:24.362Z,18.67
2024-01-19T23:22:51.370Z,12.75
2024-01-19T23:25:23.306Z,17.90
2024-01-19T23:27:57.876Z,9.18
2024-01-19T23:30:24.834Z,12.55
2024-01-19T23:32:51.911Z,11.93
2024-01-19T23:35:18.829Z,15.38
2024-01-19T23:37:45.913Z,13.98
2024-01-19T23:40:12.711Z,13.85
2024-01-19T23:42:39.515Z,14.68
2024-01-19T23:45:06.924Z,13.80
2024-01-19T23:47:33.631Z,14.23
2024-01-19T23:50:00.380Z,14.60
2024-01-19T23:52:27.154Z,11.80
2024-01-19T23:54:53.863Z,13.57
2024-01-19T23:57:20.637Z,14.38
2024-01-19T23:59:47.383Z,12.20
